Terminal Aerodrome Forecast
Issued by NWS Cleveland, OH

Home | Current Version | Previous Version | Graphics & Text | Print | Product List | Glossary On
Versions: 1 2 3 4 5 6 7 8 9 10 11 12 13 14 15 16 17 18 19 20 21 22 23 24 25 26 27 28
000
FTUS41 KCLE 202300
TAFCLE
TAF
KCLE 202334Z 2100/2206 26015G25KT 6SM -SHSN OVC040
     FM210200 27012G20KT 3SM -SHSN OVC030
      TEMPO 2103/2107 1 1/2SM -SHSN OVC015
     FM210800 27010KT 6SM -SHSN OVC040
     FM211300 24010KT P6SM BKN050
     FM212200 23008KT P6SM SCT050=

USA.gov is the U.S. government's official web portal to all federal, state and local government web resources and services.